sensor_id;sensor_type;location;lat;lon;timestamp;P1;durP1;ratioP1;P2;durP2;ratioP2
72301;SDS011;73902;52.234;5.186;2023-11-18T00:00:51;44.58;;;17.33;;
72301;SDS011;73902;52.234;5.186;2023-11-18T00:03:17;45.65;;;17.90;;
72301;SDS011;73902;52.234;5.186;2023-11-18T00:05:43;47.05;;;16.73;;
72301;SDS011;73902;52.234;5.186;2023-11-18T00:08:09;50.58;;;19.15;;
72301;SDS011;73902;52.234;5.186;2023-11-18T00:10:35;40.38;;;15.82;;
72301;SDS011;73902;52.234;5.186;2023-11-18T00:13:01;49.17;;;17.83;;
72301;SDS011;73902;52.234;5.186;2023-11-18T00:15:29;46.28;;;16.00;;
72301;SDS011;73902;52.234;5.186;2023-11-18T00:17:55;42.17;;;16.90;;
72301;SDS011;73902;52.234;5.186;2023-11-18T00:20:20;43.95;;;16.25;;
72301;SDS011;73902;52.234;5.186;2023-11-18T00:22:49;47.33;;;17.38;;
72301;SDS011;73902;52.234;5.186;2023-11-18T00:25:16;45.55;;;15.75;;
72301;SDS011;73902;52.234;5.186;2023-11-18T00:27:42;41.17;;;16.10;;
72301;SDS011;73902;52.234;5.186;2023-11-18T00:30:08;43.88;;;16.58;;
72301;SDS011;73902;52.234;5.186;2023-11-18T00:32:36;43.58;;;14.90;;
72301;SDS011;73902;52.234;5.186;2023-11-18T00:35:02;45.67;;;15.75;;
72301;SDS011;73902;52.234;5.186;2023-11-18T00:37:29;50.30;;;19.05;;
72301;SDS011;73902;52.234;5.186;2023-11-18T00:39:56;46.53;;;16.40;;
72301;SDS011;73902;52.234;5.186;2023-11-18T00:42:22;40.03;;;15.13;;
72301;SDS011;73902;52.234;5.186;2023-11-18T00:44:48;44.65;;;17.25;;
72301;SDS011;73902;52.234;5.186;2023-11-18T00:47:14;43.40;;;15.82;;
72301;SDS011;73902;52.234;5.186;2023-11-18T00:49:40;39.75;;;17.15;;
72301;SDS011;73902;52.234;5.186;2023-11-18T00:52:06;41.05;;;16.52;;
72301;SDS011;73902;52.234;5.186;2023-11-18T00:54:32;43.97;;;16.98;;
72301;SDS011;73902;52.234;5.186;2023-11-18T00:56:58;40.50;;;16.15;;
72301;SDS011;73902;52.234;5.186;2023-11-18T00:59:24;46.03;;;16.73;;
72301;SDS011;73902;52.234;5.186;2023-11-18T01:01:51;48.63;;;16.40;;
72301;SDS011;73902;52.234;5.186;2023-11-18T01:04:17;45.92;;;16.63;;
72301;SDS011;73902;52.234;5.186;2023-11-18T01:06:45;40.67;;;15.07;;
72301;SDS011;73902;52.234;5.186;2023-11-18T01:09:12;48.00;;;15.73;;
72301;SDS011;73902;52.234;5.186;2023-11-18T01:11:38;43.40;;;16.17;;
72301;SDS011;73902;52.234;5.186;2023-11-18T01:14:04;42.92;;;14.93;;
72301;SDS011;73902;52.234;5.186;2023-11-18T01:16:30;46.28;;;16.25;;
72301;SDS011;73902;52.234;5.186;2023-11-18T01:18:56;42.83;;;15.27;;
72301;SDS011;73902;52.234;5.186;2023-11-18T01:21:22;41.58;;;15.57;;
72301;SDS011;73902;52.234;5.186;2023-11-18T01:23:48;42.65;;;14.68;;
72301;SDS011;73902;52.234;5.186;2023-11-18T01:26:14;36.25;;;14.18;;
72301;SDS011;73902;52.234;5.186;2023-11-18T01:28:40;45.65;;;15.90;;
72301;SDS011;73902;52.234;5.186;2023-11-18T01:31:08;42.70;;;15.75;;
72301;SDS011;73902;52.234;5.186;2023-11-18T01:33:35;42.92;;;15.45;;
72301;SDS011;73902;52.234;5.186;2023-11-18T01:36:02;41.28;;;16.55;;
72301;SDS011;73902;52.234;5.186;2023-11-18T01:38:28;39.40;;;15.07;;
72301;SDS011;73902;52.234;5.186;2023-11-18T01:40:55;45.63;;;15.40;;
72301;SDS011;73902;52.234;5.186;2023-11-18T01:43:21;35.35;;;14.38;;
72301;SDS011;73902;52.234;5.186;2023-11-18T01:45:48;36.80;;;14.68;;
72301;SDS011;73902;52.234;5.186;2023-11-18T01:48:14;38.17;;;15.25;;
72301;SDS011;73902;52.234;5.186;2023-11-18T01:50:43;39.15;;;15.60;;
72301;SDS011;73902;52.234;5.186;2023-11-18T01:53:10;43.28;;;15.75;;
72301;SDS011;73902;52.234;5.186;2023-11-18T01:55:39;46.08;;;16.27;;
72301;SDS011;73902;52.234;5.186;2023-11-18T01:58:05;36.33;;;14.38;;
72301;SDS011;73902;52.234;5.186;2023-11-18T02:00:35;40.92;;;15.80;;
72301;SDS011;73902;52.234;5.186;2023-11-18T02:03:03;42.78;;;15.73;;
72301;SDS011;73902;52.234;5.186;2023-11-18T02:05:30;47.38;;;16.38;;
72301;SDS011;73902;52.234;5.186;2023-11-18T02:07:59;42.67;;;16.23;;
72301;SDS011;73902;52.234;5.186;2023-11-18T02:10:25;40.03;;;15.00;;
72301;SDS011;73902;52.234;5.186;2023-11-18T02:15:24;45.03;;;15.88;;
72301;SDS011;73902;52.234;5.186;2023-11-18T02:17:51;41.22;;;16.90;;
72301;SDS011;73902;52.234;5.186;2023-11-18T02:20:19;40.70;;;16.67;;
72301;SDS011;73902;52.234;5.186;2023-11-18T02:22:46;43.08;;;16.70;;
72301;SDS011;73902;52.234;5.186;2023-11-18T02:25:15;40.45;;;14.52;;
72301;SDS011;73902;52.234;5.186;2023-11-18T02:27:41;39.40;;;15.27;;
72301;SDS011;73902;52.234;5.186;2023-11-18T02:30:08;39.67;;;15.07;;
72301;SDS011;73902;52.234;5.186;2023-11-18T02:32:45;38.20;;;15.90;;
72301;SDS011;73902;52.234;5.186;2023-11-18T02:35:58;38.88;;;16.52;;
72301;SDS011;73902;52.234;5.186;2023-11-18T02:38:02;39.20;;;15.00;;
72301;SDS011;73902;52.234;5.186;2023-11-18T02:40:36;37.58;;;14.98;;
72301;SDS011;73902;52.234;5.186;2023-11-18T02:43:04;39.10;;;15.50;;
72301;SDS011;73902;52.234;5.186;2023-11-18T02:45:30;38.80;;;14.40;;
72301;SDS011;73902;52.234;5.186;2023-11-18T02:47:57;39.35;;;14.50;;
72301;SDS011;73902;52.234;5.186;2023-11-18T02:50:23;34.53;;;14.30;;
72301;SDS011;73902;52.234;5.186;2023-11-18T02:52:50;39.55;;;14.25;;
72301;SDS011;73902;52.234;5.186;2023-11-18T02:55:16;38.60;;;14.80;;
72301;SDS011;73902;52.234;5.186;2023-11-18T02:57:42;37.80;;;14.85;;
72301;SDS011;73902;52.234;5.186;2023-11-18T03:00:08;35.33;;;14.13;;
72301;SDS011;73902;52.234;5.186;2023-11-18T03:02:43;42.33;;;15.00;;
72301;SDS011;73902;52.234;5.186;2023-11-18T03:05:09;45.53;;;14.90;;
72301;SDS011;73902;52.234;5.186;2023-11-18T03:07:36;39.40;;;14.02;;
72301;SDS011;73902;52.234;5.186;2023-11-18T03:10:03;37.17;;;13.90;;
72301;SDS011;73902;52.234;5.186;2023-11-18T03:12:34;34.65;;;13.70;;
72301;SDS011;73902;52.234;5.186;2023-11-18T03:15:00;37.47;;;14.95;;
72301;SDS011;73902;52.234;5.186;2023-11-18T03:17:27;37.40;;;14.70;;
72301;SDS011;73902;52.234;5.186;2023-11-18T03:19:54;39.03;;;15.75;;
72301;SDS011;73902;52.234;5.186;2023-11-18T03:22:20;34.13;;;14.27;;
72301;SDS011;73902;52.234;5.186;2023-11-18T03:24:48;33.20;;;13.77;;
72301;SDS011;73902;52.234;5.186;2023-11-18T03:27:15;39.85;;;16.08;;
72301;SDS011;73902;52.234;5.186;2023-11-18T03:29:41;37.95;;;15.27;;
72301;SDS011;73902;52.234;5.186;2023-11-18T03:32:08;34.45;;;14.25;;
72301;SDS011;73902;52.234;5.186;2023-11-18T03:34:34;38.92;;;14.85;;
72301;SDS011;73902;52.234;5.186;2023-11-18T03:37:00;40.60;;;14.00;;
72301;SDS011;73902;52.234;5.186;2023-11-18T03:39:26;31.48;;;14.95;;
72301;SDS011;73902;52.234;5.186;2023-11-18T03:41:52;35.67;;;14.57;;
72301;SDS011;73902;52.234;5.186;2023-11-18T03:44:18;37.97;;;14.10;;
72301;SDS011;73902;52.234;5.186;2023-11-18T03:46:44;37.88;;;15.82;;
72301;SDS011;73902;52.234;5.186;2023-11-18T03:49:10;39.50;;;14.45;;
72301;SDS011;73902;52.234;5.186;2023-11-18T03:51:36;40.38;;;14.80;;
72301;SDS011;73902;52.234;5.186;2023-11-18T03:54:02;38.17;;;14.15;;
72301;SDS011;73902;52.234;5.186;2023-11-18T03:56:28;33.72;;;13.65;;
72301;SDS011;73902;52.234;5.186;2023-11-18T03:58:55;36.55;;;15.05;;
72301;SDS011;73902;52.234;5.186;2023-11-18T04:01:21;32.28;;;14.13;;
72301;SDS011;73902;52.234;5.186;2023-11-18T04:03:47;39.78;;;16.15;;
72301;SDS011;73902;52.234;5.186;2023-11-18T04:06:13;36.83;;;14.40;;
72301;SDS011;73902;52.234;5.186;2023-11-18T04:08:44;33.05;;;14.30;;
72301;SDS011;73902;52.234;5.186;2023-11-18T04:11:10;36.33;;;15.98;;
72301;SDS011;73902;52.234;5.186;2023-11-18T04:13:38;38.08;;;15.82;;
72301;SDS011;73902;52.234;5.186;2023-11-18T04:16:04;38.33;;;15.60;;
72301;SDS011;73902;52.234;5.186;2023-11-18T04:18:31;40.88;;;15.73;;
72301;SDS011;73902;52.234;5.186;2023-11-18T04:20:57;37.35;;;13.57;;
72301;SDS011;73902;52.234;5.186;2023-11-18T04:23:23;35.25;;;14.70;;
72301;SDS011;73902;52.234;5.186;2023-11-18T04:25:49;35.55;;;14.57;;
72301;SDS011;73902;52.234;5.186;2023-11-18T04:28:16;32.75;;;12.27;;
72301;SDS011;73902;52.234;5.186;2023-11-18T04:30:42;37.25;;;14.25;;
72301;SDS011;73902;52.234;5.186;2023-11-18T04:33:08;32.55;;;13.48;;
72301;SDS011;73902;52.234;5.186;2023-11-18T04:35:34;35.80;;;14.95;;
72301;SDS011;73902;52.234;5.186;2023-11-18T04:38:01;38.38;;;14.65;;
72301;SDS011;73902;52.234;5.186;2023-11-18T04:40:27;38.28;;;14.73;;
72301;SDS011;73902;52.234;5.186;2023-11-18T04:42:53;36.70;;;14.77;;
72301;SDS011;73902;52.234;5.186;2023-11-18T04:45:19;33.30;;;14.45;;
72301;SDS011;73902;52.234;5.186;2023-11-18T04:47:45;34.90;;;14.70;;
72301;SDS011;73902;52.234;5.186;2023-11-18T04:50:11;35.58;;;13.48;;
72301;SDS011;73902;52.234;5.186;2023-11-18T04:52:37;38.42;;;13.77;;
72301;SDS011;73902;52.234;5.186;2023-11-18T04:55:03;35.45;;;13.70;;
72301;SDS011;73902;52.234;5.186;2023-11-18T04:57:30;37.10;;;14.23;;
72301;SDS011;73902;52.234;5.186;2023-11-18T04:59:56;36.17;;;12.95;;
72301;SDS011;73902;52.234;5.186;2023-11-18T05:02:22;31.95;;;13.80;;
72301;SDS011;73902;52.234;5.186;2023-11-18T05:04:48;32.00;;;13.80;;
72301;SDS011;73902;52.234;5.186;2023-11-18T05:07:15;32.65;;;13.82;;
72301;SDS011;73902;52.234;5.186;2023-11-18T05:09:40;31.60;;;12.93;;
72301;SDS011;73902;52.234;5.186;2023-11-18T05:12:06;41.53;;;15.77;;
72301;SDS011;73902;52.234;5.186;2023-11-18T05:14:34;37.88;;;14.75;;
72301;SDS011;73902;52.234;5.186;2023-11-18T05:17:01;33.20;;;12.73;;
72301;SDS011;73902;52.234;5.186;2023-11-18T05:19:29;41.80;;;14.77;;
72301;SDS011;73902;52.234;5.186;2023-11-18T05:21:55;32.17;;;13.48;;
72301;SDS011;73902;52.234;5.186;2023-11-18T05:24:21;30.35;;;12.88;;
72301;SDS011;73902;52.234;5.186;2023-11-18T05:26:47;36.20;;;15.60;;
72301;SDS011;73902;52.234;5.186;2023-11-18T05:29:14;37.85;;;15.35;;
72301;SDS011;73902;52.234;5.186;2023-11-18T05:31:41;40.95;;;14.52;;
72301;SDS011;73902;52.234;5.186;2023-11-18T05:34:08;39.33;;;14.35;;
72301;SDS011;73902;52.234;5.186;2023-11-18T05:36:34;34.10;;;13.52;;
72301;SDS011;73902;52.234;5.186;2023-11-18T05:39:02;39.72;;;14.02;;
72301;SDS011;73902;52.234;5.186;2023-11-18T05:41:30;30.67;;;12.80;;
72301;SDS011;73902;52.234;5.186;2023-11-18T05:43:57;35.47;;;14.20;;
72301;SDS011;73902;52.234;5.186;2023-11-18T05:46:23;31.48;;;12.70;;
72301;SDS011;73902;52.234;5.186;2023-11-18T05:48:51;35.50;;;13.48;;
72301;SDS011;73902;52.234;5.186;2023-11-18T05:51:21;29.88;;;12.63;;
72301;SDS011;73902;52.234;5.186;2023-11-18T05:53:47;31.83;;;13.73;;
72301;SDS011;73902;52.234;5.186;2023-11-18T05:56:14;39.15;;;13.32;;
72301;SDS011;73902;52.234;5.186;2023-11-18T05:58:43;41.63;;;13.23;;
72301;SDS011;73902;52.234;5.186;2023-11-18T06:01:09;34.63;;;12.68;;
72301;SDS011;73902;52.234;5.186;2023-11-18T06:03:36;34.40;;;12.98;;
72301;SDS011;73902;52.234;5.186;2023-11-18T06:06:05;31.42;;;12.30;;
72301;SDS011;73902;52.234;5.186;2023-11-18T06:08:32;34.15;;;13.68;;
72301;SDS011;73902;52.234;5.186;2023-11-18T06:10:58;34.88;;;12.30;;
72301;SDS011;73902;52.234;5.186;2023-11-18T06:13:24;31.88;;;12.60;;
72301;SDS011;73902;52.234;5.186;2023-11-18T06:15:52;29.67;;;12.18;;
72301;SDS011;73902;52.234;5.186;2023-11-18T06:18:18;30.95;;;11.13;;
72301;SDS011;73902;52.234;5.186;2023-11-18T06:20:44;32.25;;;12.90;;
72301;SDS011;73902;52.234;5.186;2023-11-18T06:23:10;28.80;;;11.38;;
72301;SDS011;73902;52.234;5.186;2023-11-18T06:25:36;31.50;;;12.38;;
72301;SDS011;73902;52.234;5.186;2023-11-18T06:28:03;29.38;;;12.02;;
72301;SDS011;73902;52.234;5.186;2023-11-18T06:30:29;33.42;;;11.68;;
72301;SDS011;73902;52.234;5.186;2023-11-18T06:32:55;34.60;;;12.80;;
72301;SDS011;73902;52.234;5.186;2023-11-18T06:35:21;34.15;;;12.68;;
72301;SDS011;73902;52.234;5.186;2023-11-18T06:37:47;33.83;;;11.90;;
72301;SDS011;73902;52.234;5.186;2023-11-18T06:40:13;32.55;;;10.95;;
72301;SDS011;73902;52.234;5.186;2023-11-18T06:42:43;44.20;;;14.13;;
72301;SDS011;73902;52.234;5.186;2023-11-18T06:45:12;27.98;;;11.20;;
72301;SDS011;73902;52.234;5.186;2023-11-18T06:47:38;32.92;;;13.38;;
72301;SDS011;73902;52.234;5.186;2023-11-18T06:50:08;31.45;;;11.27;;
72301;SDS011;73902;52.234;5.186;2023-11-18T06:52:38;27.95;;;11.20;;
72301;SDS011;73902;52.234;5.186;2023-11-18T06:57:29;30.75;;;11.23;;
72301;SDS011;73902;52.234;5.186;2023-11-18T06:59:56;33.78;;;11.40;;
72301;SDS011;73902;52.234;5.186;2023-11-18T07:02:22;32.17;;;10.80;;
72301;SDS011;73902;52.234;5.186;2023-11-18T07:04:48;26.50;;;10.35;;
72301;SDS011;73902;52.234;5.186;2023-11-18T07:07:14;31.08;;;11.68;;
72301;SDS011;73902;52.234;5.186;2023-11-18T07:09:40;27.30;;;10.65;;
72301;SDS011;73902;52.234;5.186;2023-11-18T07:12:06;31.73;;;11.90;;
72301;SDS011;73902;52.234;5.186;2023-11-18T07:14:33;32.70;;;10.73;;
72301;SDS011;73902;52.234;5.186;2023-11-18T07:16:59;27.67;;;11.30;;
72301;SDS011;73902;52.234;5.186;2023-11-18T07:19:25;33.80;;;12.60;;
72301;SDS011;73902;52.234;5.186;2023-11-18T07:21:51;28.63;;;11.48;;
72301;SDS011;73902;52.234;5.186;2023-11-18T07:24:17;27.42;;;9.88;;
72301;SDS011;73902;52.234;5.186;2023-11-18T07:26:45;24.55;;;9.90;;
72301;SDS011;73902;52.234;5.186;2023-11-18T07:29:11;29.52;;;11.30;;
72301;SDS011;73902;52.234;5.186;2023-11-18T07:31:37;25.90;;;9.90;;
72301;SDS011;73902;52.234;5.186;2023-11-18T07:34:03;30.77;;;10.32;;
72301;SDS011;73902;52.234;5.186;2023-11-18T07:36:30;27.55;;;10.95;;
72301;SDS011;73902;52.234;5.186;2023-11-18T07:38:57;34.13;;;10.77;;
72301;SDS011;73902;52.234;5.186;2023-11-18T07:41:26;31.80;;;9.55;;
72301;SDS011;73902;52.234;5.186;2023-11-18T07:43:52;25.55;;;9.75;;
72301;SDS011;73902;52.234;5.186;2023-11-18T07:46:23;28.65;;;10.25;;
72301;SDS011;73902;52.234;5.186;2023-11-18T07:48:50;25.63;;;10.32;;
72301;SDS011;73902;52.234;5.186;2023-11-18T07:51:17;27.25;;;11.07;;
72301;SDS011;73902;52.234;5.186;2023-11-18T07:53:43;25.80;;;10.27;;
72301;SDS011;73902;52.234;5.186;2023-11-18T07:56:09;29.40;;;10.10;;
72301;SDS011;73902;52.234;5.186;2023-11-18T07:58:38;27.40;;;9.15;;
72301;SDS011;73902;52.234;5.186;2023-11-18T08:01:04;25.60;;;9.85;;
72301;SDS011;73902;52.234;5.186;2023-11-18T08:03:32;25.35;;;9.80;;
72301;SDS011;73902;52.234;5.186;2023-11-18T08:05:58;27.27;;;10.05;;
72301;SDS011;73902;52.234;5.186;2023-11-18T08:08:24;25.88;;;10.07;;
72301;SDS011;73902;52.234;5.186;2023-11-18T08:10:50;22.50;;;9.75;;
72301;SDS011;73902;52.234;5.186;2023-11-18T08:13:16;23.15;;;9.65;;
72301;SDS011;73902;52.234;5.186;2023-11-18T08:15:43;25.63;;;9.15;;
72301;SDS011;73902;52.234;5.186;2023-11-18T08:18:10;22.58;;;9.10;;
72301;SDS011;73902;52.234;5.186;2023-11-18T08:20:36;22.23;;;9.15;;
72301;SDS011;73902;52.234;5.186;2023-11-18T08:23:03;24.20;;;9.70;;
72301;SDS011;73902;52.234;5.186;2023-11-18T08:25:32;21.83;;;8.95;;
72301;SDS011;73902;52.234;5.186;2023-11-18T08:28:01;23.73;;;9.85;;
72301;SDS011;73902;52.234;5.186;2023-11-18T08:30:28;23.17;;;9.00;;
72301;SDS011;73902;52.234;5.186;2023-11-18T08:32:54;23.25;;;9.05;;
72301;SDS011;73902;52.234;5.186;2023-11-18T08:35:20;23.70;;;7.90;;
72301;SDS011;73902;52.234;5.186;2023-11-18T08:37:47;23.52;;;9.60;;
72301;SDS011;73902;52.234;5.186;2023-11-18T08:40:13;22.70;;;8.60;;
72301;SDS011;73902;52.234;5.186;2023-11-18T08:42:46;22.63;;;8.93;;
72301;SDS011;73902;52.234;5.186;2023-11-18T08:45:17;20.60;;;8.05;;
72301;SDS011;73902;52.234;5.186;2023-11-18T08:47:44;21.42;;;9.18;;
72301;SDS011;73902;52.234;5.186;2023-11-18T08:50:11;18.98;;;7.68;;
72301;SDS011;73902;52.234;5.186;2023-11-18T08:52:37;22.63;;;8.32;;
72301;SDS011;73902;52.234;5.186;2023-11-18T08:55:08;33.63;;;8.43;;
72301;SDS011;73902;52.234;5.186;2023-11-18T08:57:38;40.03;;;9.25;;
72301;SDS011;73902;52.234;5.186;2023-11-18T09:00:17;19.20;;;7.40;;
72301;SDS011;73902;52.234;5.186;2023-11-18T09:03:02;28.98;;;9.50;;
72301;SDS011;73902;52.234;5.186;2023-11-18T09:05:30;21.15;;;8.10;;
72301;SDS011;73902;52.234;5.186;2023-11-18T09:07:57;18.08;;;7.70;;
72301;SDS011;73902;52.234;5.186;2023-11-18T09:10:25;25.80;;;7.57;;
72301;SDS011;73902;52.234;5.186;2023-11-18T09:12:53;22.95;;;8.18;;
72301;SDS011;73902;52.234;5.186;2023-11-18T09:15:19;18.55;;;7.28;;
72301;SDS011;73902;52.234;5.186;2023-11-18T09:17:49;20.67;;;7.35;;
72301;SDS011;73902;52.234;5.186;2023-11-18T09:20:15;17.52;;;6.55;;
72301;SDS011;73902;52.234;5.186;2023-11-18T09:22:50;20.73;;;7.90;;
72301;SDS011;73902;52.234;5.186;2023-11-18T09:25:20;29.77;;;7.82;;
72301;SDS011;73902;52.234;5.186;2023-11-18T09:27:47;27.40;;;8.18;;
72301;SDS011;73902;52.234;5.186;2023-11-18T09:30:13;42.30;;;8.02;;
72301;SDS011;73902;52.234;5.186;2023-11-18T09:32:40;16.08;;;7.15;;
72301;SDS011;73902;52.234;5.186;2023-11-18T09:35:12;23.25;;;7.78;;
72301;SDS011;73902;52.234;5.186;2023-11-18T09:37:38;15.63;;;6.45;;
72301;SDS011;73902;52.234;5.186;2023-11-18T09:42:37;15.50;;;6.40;;
72301;SDS011;73902;52.234;5.186;2023-11-18T09:45:04;16.42;;;7.43;;
72301;SDS011;73902;52.234;5.186;2023-11-18T09:47:33;19.63;;;7.03;;
72301;SDS011;73902;52.234;5.186;2023-11-18T09:50:06;13.88;;;5.13;;
72301;SDS011;73902;52.234;5.186;2023-11-18T09:52:35;16.65;;;6.32;;
72301;SDS011;73902;52.234;5.186;2023-11-18T09:55:03;19.48;;;7.00;;
72301;SDS011;73902;52.234;5.186;2023-11-18T09:57:36;22.10;;;6.75;;
72301;SDS011;73902;52.234;5.186;2023-11-18T10:00:06;19.38;;;6.60;;
72301;SDS011;73902;52.234;5.186;2023-11-18T10:02:51;10.98;;;3.95;;
72301;SDS011;73902;52.234;5.186;2023-11-18T10:05:17;15.75;;;6.00;;
72301;SDS011;73902;52.234;5.186;2023-11-18T10:07:47;14.20;;;4.80;;
72301;SDS011;73902;52.234;5.186;2023-11-18T10:10:13;14.55;;;5.10;;
72301;SDS011;73902;52.234;5.186;2023-11-18T10:12:41;18.45;;;5.60;;
72301;SDS011;73902;52.234;5.186;2023-11-18T10:15:10;20.83;;;6.25;;
72301;SDS011;73902;52.234;5.186;2023-11-18T10:17:45;20.67;;;5.60;;
72301;SDS011;73902;52.234;5.186;2023-11-18T10:20:43;14.82;;;5.85;;
72301;SDS011;73902;52.234;5.186;2023-11-18T10:23:13;15.68;;;5.85;;
72301;SDS011;73902;52.234;5.186;2023-11-18T10:25:47;18.20;;;5.60;;
72301;SDS011;73902;52.234;5.186;2023-11-18T10:28:26;13.40;;;5.85;;
72301;SDS011;73902;52.234;5.186;2023-11-18T10:30:53;18.77;;;5.00;;
72301;SDS011;73902;52.234;5.186;2023-11-18T10:33:22;13.25;;;5.75;;
72301;SDS011;73902;52.234;5.186;2023-11-18T10:35:51;16.38;;;6.22;;
72301;SDS011;73902;52.234;5.186;2023-11-18T10:38:20;13.82;;;6.28;;
72301;SDS011;73902;52.234;5.186;2023-11-18T10:40:52;15.75;;;5.15;;
72301;SDS011;73902;52.234;5.186;2023-11-18T10:43:20;14.38;;;5.03;;
72301;SDS011;73902;52.234;5.186;2023-11-18T10:45:49;17.65;;;5.72;;
72301;SDS011;73902;52.234;5.186;2023-11-18T10:48:15;12.65;;;5.07;;
72301;SDS011;73902;52.234;5.186;2023-11-18T10:50:45;15.63;;;5.20;;
72301;SDS011;73902;52.234;5.186;2023-11-18T10:53:13;15.60;;;6.20;;
72301;SDS011;73902;52.234;5.186;2023-11-18T10:55:42;17.63;;;5.60;;
72301;SDS011;73902;52.234;5.186;2023-11-18T10:58:09;14.70;;;4.80;;
72301;SDS011;73902;52.234;5.186;2023-11-18T11:00:51;12.30;;;5.28;;
72301;SDS011;73902;52.234;5.186;2023-11-18T11:03:20;13.68;;;5.63;;
72301;SDS011;73902;52.234;5.186;2023-11-18T11:05:49;14.43;;;5.47;;
72301;SDS011;73902;52.234;5.186;2023-11-18T11:08:15;14.73;;;5.82;;
72301;SDS011;73902;52.234;5.186;2023-11-18T11:10:42;10.88;;;3.75;;
72301;SDS011;73902;52.234;5.186;2023-11-18T11:13:08;14.40;;;5.45;;
72301;SDS011;73902;52.234;5.186;2023-11-18T11:15:42;15.35;;;4.63;;
72301;SDS011;73902;52.234;5.186;2023-11-18T11:18:14;12.05;;;4.72;;
72301;SDS011;73902;52.234;5.186;2023-11-18T11:20:52;10.52;;;4.32;;
72301;SDS011;73902;52.234;5.186;2023-11-18T11:23:21;14.50;;;4.60;;
72301;SDS011;73902;52.234;5.186;2023-11-18T11:31:37;15.00;;;5.07;;
72301;SDS011;73902;52.234;5.186;2023-11-18T11:34:04;10.80;;;4.95;;
72301;SDS011;73902;52.234;5.186;2023-11-18T11:36:42;13.93;;;4.82;;
72301;SDS011;73902;52.234;5.186;2023-11-18T11:39:10;12.00;;;4.90;;
72301;SDS011;73902;52.234;5.186;2023-11-18T11:41:41;12.50;;;4.10;;
72301;SDS011;73902;52.234;5.186;2023-11-18T11:44:10;14.05;;;4.60;;
72301;SDS011;73902;52.234;5.186;2023-11-18T11:46:38;8.68;;;3.47;;
72301;SDS011;73902;52.234;5.186;2023-11-18T11:49:07;11.25;;;4.10;;
72301;SDS011;73902;52.234;5.186;2023-11-18T11:51:54;11.23;;;4.13;;
72301;SDS011;73902;52.234;5.186;2023-11-18T11:54:23;7.78;;;3.75;;
72301;SDS011;73902;52.234;5.186;2023-11-18T11:56:55;11.07;;;4.53;;
72301;SDS011;73902;52.234;5.186;2023-11-18T12:02:02;11.32;;;4.38;;
72301;SDS011;73902;52.234;5.186;2023-11-18T12:04:33;11.55;;;4.40;;
72301;SDS011;73902;52.234;5.186;2023-11-18T12:06:59;10.65;;;3.78;;
72301;SDS011;73902;52.234;5.186;2023-11-18T12:09:30;11.90;;;3.47;;
72301;SDS011;73902;52.234;5.186;2023-11-18T12:12:03;10.27;;;3.60;;
72301;SDS011;73902;52.234;5.186;2023-11-18T12:14:29;9.18;;;3.63;;
72301;SDS011;73902;52.234;5.186;2023-11-18T12:17:06;9.00;;;3.50;;
72301;SDS011;73902;52.234;5.186;2023-11-18T12:19:42;7.38;;;3.17;;
72301;SDS011;73902;52.234;5.186;2023-11-18T12:22:15;8.48;;;3.10;;
72301;SDS011;73902;52.234;5.186;2023-11-18T12:33:20;10.00;;;2.70;;
72301;SDS011;73902;52.234;5.186;2023-11-18T12:35:25;7.90;;;2.55;;
72301;SDS011;73902;52.234;5.186;2023-11-18T12:43:11;8.38;;;3.55;;
72301;SDS011;73902;52.234;5.186;2023-11-18T12:48:16;9.20;;;2.40;;
72301;SDS011;73902;52.234;5.186;2023-11-18T12:50:43;6.70;;;2.17;;
72301;SDS011;73902;52.234;5.186;2023-11-18T12:53:11;7.97;;;2.30;;
72301;SDS011;73902;52.234;5.186;2023-11-18T12:55:39;9.57;;;3.30;;
72301;SDS011;73902;52.234;5.186;2023-11-18T12:58:06;8.68;;;2.80;;
72301;SDS011;73902;52.234;5.186;2023-11-18T13:00:32;6.22;;;2.08;;
72301;SDS011;73902;52.234;5.186;2023-11-18T13:03:00;8.13;;;2.42;;
72301;SDS011;73902;52.234;5.186;2023-11-18T13:05:26;9.27;;;2.45;;
72301;SDS011;73902;52.234;5.186;2023-11-18T13:07:55;7.15;;;2.58;;
72301;SDS011;73902;52.234;5.186;2023-11-18T13:10:22;7.80;;;1.98;;
72301;SDS011;73902;52.234;5.186;2023-11-18T13:12:49;7.60;;;3.05;;
72301;SDS011;73902;52.234;5.186;2023-11-18T13:15:15;6.75;;;2.13;;
72301;SDS011;73902;52.234;5.186;2023-11-18T13:17:56;8.98;;;2.92;;
72301;SDS011;73902;52.234;5.186;2023-11-18T13:20:22;11.00;;;2.38;;
72301;SDS011;73902;52.234;5.186;2023-11-18T13:22:49;9.07;;;2.67;;
72301;SDS011;73902;52.234;5.186;2023-11-18T13:25:15;4.88;;;1.92;;
72301;SDS011;73902;52.234;5.186;2023-11-18T13:27:42;6.30;;;2.10;;
72301;SDS011;73902;52.234;5.186;2023-11-18T13:30:08;7.43;;;1.98;;
72301;SDS011;73902;52.234;5.186;2023-11-18T13:32:41;5.07;;;1.58;;
72301;SDS011;73902;52.234;5.186;2023-11-18T13:35:08;5.38;;;2.00;;
72301;SDS011;73902;52.234;5.186;2023-11-18T13:37:34;8.00;;;2.00;;
72301;SDS011;73902;52.234;5.186;2023-11-18T13:40:00;6.88;;;1.92;;
72301;SDS011;73902;52.234;5.186;2023-11-18T13:42:31;6.95;;;1.70;;
72301;SDS011;73902;52.234;5.186;2023-11-18T13:45:05;7.10;;;1.73;;
72301;SDS011;73902;52.234;5.186;2023-11-18T13:47:35;8.27;;;2.25;;
72301;SDS011;73902;52.234;5.186;2023-11-18T13:50:01;5.70;;;1.80;;
72301;SDS011;73902;52.234;5.186;2023-11-18T13:52:31;7.43;;;2.22;;
72301;SDS011;73902;52.234;5.186;2023-11-18T13:54:58;6.45;;;2.08;;
72301;SDS011;73902;52.234;5.186;2023-11-18T13:57:24;6.25;;;1.63;;
72301;SDS011;73902;52.234;5.186;2023-11-18T13:59:51;4.85;;;1.52;;
72301;SDS011;73902;52.234;5.186;2023-11-18T14:02:17;6.13;;;1.40;;
72301;SDS011;73902;52.234;5.186;2023-11-18T14:04:43;5.18;;;1.58;;
72301;SDS011;73902;52.234;5.186;2023-11-18T14:07:09;4.25;;;1.42;;
72301;SDS011;73902;52.234;5.186;2023-11-18T14:09:37;3.35;;;1.27;;
72301;SDS011;73902;52.234;5.186;2023-11-18T14:12:09;4.47;;;1.27;;
72301;SDS011;73902;52.234;5.186;2023-11-18T14:14:36;6.50;;;1.50;;
72301;SDS011;73902;52.234;5.186;2023-11-18T14:17:03;4.90;;;1.30;;
72301;SDS011;73902;52.234;5.186;2023-11-18T14:19:31;3.63;;;1.15;;
72301;SDS011;73902;52.234;5.186;2023-11-18T14:22:00;4.43;;;1.30;;
72301;SDS011;73902;52.234;5.186;2023-11-18T14:24:26;5.57;;;1.40;;
72301;SDS011;73902;52.234;5.186;2023-11-18T14:26:57;3.58;;;1.25;;
72301;SDS011;73902;52.234;5.186;2023-11-18T14:29:23;3.60;;;1.15;;
72301;SDS011;73902;52.234;5.186;2023-11-18T14:31:49;4.50;;;1.20;;
72301;SDS011;73902;52.234;5.186;2023-11-18T14:34:15;3.30;;;1.10;;
72301;SDS011;73902;52.234;5.186;2023-11-18T14:36:41;5.78;;;1.40;;
72301;SDS011;73902;52.234;5.186;2023-11-18T14:39:10;6.80;;;2.30;;
72301;SDS011;73902;52.234;5.186;2023-11-18T14:41:39;8.38;;;3.15;;
72301;SDS011;73902;52.234;5.186;2023-11-18T14:44:05;7.07;;;2.70;;
72301;SDS011;73902;52.234;5.186;2023-11-18T14:46:34;4.53;;;1.10;;
72301;SDS011;73902;52.234;5.186;2023-11-18T14:49:00;4.35;;;1.30;;
72301;SDS011;73902;52.234;5.186;2023-11-18T14:51:26;6.97;;;1.65;;
72301;SDS011;73902;52.234;5.186;2023-11-18T14:53:52;4.15;;;1.30;;
72301;SDS011;73902;52.234;5.186;2023-11-18T14:56:19;6.07;;;1.80;;
72301;SDS011;73902;52.234;5.186;2023-11-18T14:58:45;4.65;;;1.50;;
72301;SDS011;73902;52.234;5.186;2023-11-18T15:01:17;5.15;;;1.60;;
72301;SDS011;73902;52.234;5.186;2023-11-18T15:03:44;5.32;;;1.35;;
72301;SDS011;73902;52.234;5.186;2023-11-18T15:06:13;4.40;;;1.40;;